Time;durP1;ratioP1;P1;durP2;ratioP2;P2;SDS_P1;SDS_P2;PMS_P1;PMS_P2;Temp;Humidity;BMP_temperature;BMP_pressure;BME280_temperature;BME280_humidity;BME280_pressure;Samples;Min_cycle;Max_cycle;Signal;HPM_P1;HPM_P2
2023/04/14 00:01:01;;;;;;;9.63;4.93;;;;;;;;;;5034207;28;20223;-67
2023/04/14 00:03:27;;;;;;;10.90;3.97;;;;;;;;;;5034578;28;20178;-68
2023/04/14 00:05:53;;;;;;;11.13;4.30;;;;;;;;;;5034060;28;20179;-67
2023/04/14 00:08:19;;;;;;;13.37;5.30;;;;;;;;;;5034347;28;20182;-66
2023/04/14 00:10:45;;;;;;;11.20;5.17;;;;;;;;;;5033702;28;20199;-66
2023/04/14 00:13:11;;;;;;;12.70;4.87;;;;;;;;;;5034617;28;20254;-66
2023/04/14 00:15:37;;;;;;;14.13;5.27;;;;;;;;;;5034593;28;20209;-67
2023/04/14 00:18:03;;;;;;;9.57;3.97;;;;;;;;;;5034645;28;20265;-67
2023/04/14 00:20:29;;;;;;;13.40;4.70;;;;;;;;;;5034343;28;20294;-67
2023/04/14 00:22:55;;;;;;;12.03;4.13;;;;;;;;;;5034357;28;20177;-70
2023/04/14 00:25:21;;;;;;;10.90;3.90;;;;;;;;;;5034552;28;20171;-68
2023/04/14 00:27:47;;;;;;;11.47;4.97;;;;;;;;;;5035085;28;20184;-67
2023/04/14 00:30:13;;;;;;;14.10;4.97;;;;;;;;;;5035377;28;20551;-67
2023/04/14 00:32:39;;;;;;;10.40;4.37;;;;;;;;;;5017379;28;20234;-66
2023/04/14 00:35:05;;;;;;;10.63;5.10;;;;;;;;;;5035140;28;20529;-66
2023/04/14 00:37:31;;;;;;;8.70;4.70;;;;;;;;;;5035123;28;20179;-66
2023/04/14 00:39:57;;;;;;;19.03;4.40;;;;;;;;;;5034632;28;20207;-67
2023/04/14 00:42:23;;;;;;;14.70;4.20;;;;;;;;;;5034803;28;20672;-66
2023/04/14 00:44:50;;;;;;;7.43;3.63;;;;;;;;;;5035173;28;20190;-64
2023/04/14 00:47:16;;;;;;;11.70;5.00;;;;;;;;;;5017659;28;20266;-65
2023/04/14 00:49:42;;;;;;;13.77;4.37;;;;;;;;;;5035167;28;20182;-64
2023/04/14 00:52:08;;;;;;;14.87;4.23;;;;;;;;;;5035349;28;20207;-65
2023/04/14 00:54:34;;;;;;;13.07;4.50;;;;;;;;;;5034994;28;20179;-65
2023/04/14 00:57:01;;;;;;;11.10;4.17;;;;;;;;;;5035295;28;20179;-66
2023/04/14 00:59:28;;;;;;;11.33;4.33;;;;;;;;;;5034454;28;20553;-65
2023/04/14 01:01:54;;;;;;;8.37;4.10;;;;;;;;;;5035126;28;20684;-65
2023/04/14 01:04:20;;;;;;;9.13;3.93;;;;;;;;;;5034790;28;20175;-64
2023/04/14 01:06:46;;;;;;;9.23;3.80;;;;;;;;;;5035038;28;20187;-66
2023/04/14 01:09:14;;;;;;;12.40;4.43;;;;;;;;;;5034772;28;20521;-65
2023/04/14 01:11:59;;;;;;;12.43;3.90;;;;;;;;;;5016858;28;20547;-67
2023/04/14 01:14:34;;;;;;;10.10;3.97;;;;;;;;;;5016877;28;20190;-66
2023/04/14 01:17:20;;;;;;;12.83;4.10;;;;;;;;;;5034307;28;20186;-67
2023/04/14 01:20:22;;;;;;;10.93;3.70;;;;;;;;;;5020182;28;20222;-66
2023/04/14 01:23:14;;;;;;;8.87;4.20;;;;;;;;;;4957826;29;20185;-66
2023/04/14 01:25:56;;;;;;;13.97;3.80;;;;;;;;;;4990874;28;20210;-65
2023/04/14 01:28:25;;;;;;;9.37;4.20;;;;;;;;;;5039297;28;20638;-65
2023/04/14 01:30:54;;;;;;;12.80;3.67;;;;;;;;;;5020973;28;20206;-65
2023/04/14 01:33:21;;;;;;;12.20;3.70;;;;;;;;;;5020497;28;20205;-65
2023/04/14 01:35:50;;;;;;;10.37;4.10;;;;;;;;;;5037762;28;20181;-66
2023/04/14 01:38:21;;;;;;;10.80;3.87;;;;;;;;;;5039001;28;20645;-67
2023/04/14 01:40:49;;;;;;;10.93;3.93;;;;;;;;;;5038681;28;20245;-66
2023/04/14 01:43:15;;;;;;;15.40;4.47;;;;;;;;;;5038800;28;20680;-65
2023/04/14 01:45:47;;;;;;;11.37;4.17;;;;;;;;;;5038700;28;20254;-65
2023/04/14 01:48:14;;;;;;;10.17;4.50;;;;;;;;;;5039155;28;20186;-65
2023/04/14 01:50:41;;;;;;;6.43;3.90;;;;;;;;;;5038491;28;20261;-65
2023/04/14 01:53:08;;;;;;;8.27;3.60;;;;;;;;;;5039022;28;20664;-64
2023/04/14 01:55:37;;;;;;;8.40;4.13;;;;;;;;;;5038890;28;20229;-65
2023/04/14 01:58:03;;;;;;;9.57;4.10;;;;;;;;;;5037955;28;20213;-65
2023/04/14 02:00:30;;;;;;;9.27;3.97;;;;;;;;;;5038032;28;20206;-66
2023/04/14 02:02:56;;;;;;;9.87;4.60;;;;;;;;;;5019252;28;20655;-65
2023/04/14 02:05:23;;;;;;;14.77;4.63;;;;;;;;;;5019505;28;20228;-64
2023/04/14 02:07:51;;;;;;;8.67;4.43;;;;;;;;;;5021149;28;20186;-65
2023/04/14 02:10:19;;;;;;;11.53;4.20;;;;;;;;;;5039407;28;20275;-65
2023/04/14 02:12:45;;;;;;;8.83;4.33;;;;;;;;;;5038845;28;20672;-65
2023/04/14 02:15:14;;;;;;;17.10;4.63;;;;;;;;;;5039070;28;20186;-65
2023/04/14 02:17:41;;;;;;;13.57;4.27;;;;;;;;;;5039097;28;20240;-65
2023/04/14 02:20:08;;;;;;;11.67;4.00;;;;;;;;;;5038588;28;20217;-65
2023/04/14 02:22:34;;;;;;;10.20;4.50;;;;;;;;;;5038743;28;20585;-65
2023/04/14 02:25:00;;;;;;;12.93;4.93;;;;;;;;;;5020944;28;20178;-65
2023/04/14 02:27:30;;;;;;;10.90;4.53;;;;;;;;;;5020936;28;20270;-65
2023/04/14 02:29:57;;;;;;;9.67;4.40;;;;;;;;;;5020339;28;20245;-65
2023/04/14 02:32:25;;;;;;;11.13;4.60;;;;;;;;;;5038174;28;20598;-64
2023/04/14 02:34:58;;;;;;;14.10;4.83;;;;;;;;;;5038408;28;20183;-64
2023/04/14 02:37:25;;;;;;;12.93;4.47;;;;;;;;;;5038333;28;20557;-65
2023/04/14 02:39:55;;;;;;;10.47;5.10;;;;;;;;;;5037902;28;20252;-66
2023/04/14 02:42:25;;;;;;;14.43;4.77;;;;;;;;;;5038257;28;20195;-65
2023/04/14 02:44:55;;;;;;;11.80;4.10;;;;;;;;;;5038881;28;20258;-66
2023/04/14 02:47:35;;;;;;;15.43;4.97;;;;;;;;;;5038491;28;20175;-65
2023/04/14 02:50:02;;;;;;;10.13;4.53;;;;;;;;;;5037844;28;20543;-65
2023/04/14 02:52:30;;;;;;;15.37;5.10;;;;;;;;;;5038403;28;20210;-64
2023/04/14 02:54:57;;;;;;;12.37;4.73;;;;;;;;;;5020084;28;20214;-64
2023/04/14 02:57:23;;;;;;;11.83;4.90;;;;;;;;;;5019674;28;20175;-64
2023/04/14 02:59:51;;;;;;;16.83;5.07;;;;;;;;;;5037415;28;20211;-66
2023/04/14 03:02:17;;;;;;;13.63;4.93;;;;;;;;;;5037319;28;20218;-65
2023/04/14 03:04:43;;;;;;;15.43;4.17;;;;;;;;;;5037502;28;20179;-66
2023/04/14 03:07:11;;;;;;;16.00;4.37;;;;;;;;;;5037952;28;20211;-64
2023/04/14 03:09:37;;;;;;;15.73;4.93;;;;;;;;;;5037948;28;20202;-63
2023/04/14 03:12:04;;;;;;;13.07;4.80;;;;;;;;;;5037879;28;20214;-64
2023/04/14 03:14:30;;;;;;;13.60;4.70;;;;;;;;;;5020670;28;20528;-64
2023/04/14 03:16:57;;;;;;;11.17;4.87;;;;;;;;;;5020348;28;20190;-64
2023/04/14 03:19:23;;;;;;;10.97;4.67;;;;;;;;;;5037420;28;20218;-64
2023/04/14 03:21:49;;;;;;;11.27;4.80;;;;;;;;;;5056027;22;20224;-67
2023/04/14 03:24:22;;;;;;;11.23;4.70;;;;;;;;;;4997588;28;20203;-68
2023/04/14 03:26:48;;;;;;;12.37;4.27;;;;;;;;;;5015407;28;20186;-67
2023/04/14 03:29:15;;;;;;;10.50;4.50;;;;;;;;;;4997747;28;20711;-67
2023/04/14 03:31:43;;;;;;;12.80;5.00;;;;;;;;;;5015225;28;20247;-68
2023/04/14 03:34:10;;;;;;;11.73;4.67;;;;;;;;;;5015023;28;20172;-67
2023/04/14 03:36:36;;;;;;;13.70;5.33;;;;;;;;;;4997380;28;20180;-69
2023/04/14 03:39:04;;;;;;;14.23;6.17;;;;;;;;;;4997251;28;20713;-67
2023/04/14 03:41:34;;;;;;;12.23;5.20;;;;;;;;;;5014771;28;20196;-68
2023/04/14 03:44:01;;;;;;;20.07;6.53;;;;;;;;;;5014390;28;20179;-69
2023/04/14 03:46:27;;;;;;;14.30;5.47;;;;;;;;;;4997138;28;20184;-68
2023/04/14 03:48:55;;;;;;;14.60;5.97;;;;;;;;;;4997390;28;20563;-68
2023/04/14 03:51:22;;;;;;;12.60;5.77;;;;;;;;;;4996920;28;20206;-67
2023/04/14 03:53:48;;;;;;;16.13;6.50;;;;;;;;;;5015206;28;20180;-68
2023/04/14 03:56:15;;;;;;;15.10;6.40;;;;;;;;;;5014529;28;20186;-68
2023/04/14 03:58:49;;;;;;;16.60;6.40;;;;;;;;;;5014447;28;20219;-69
2023/04/14 04:01:16;;;;;;;19.10;6.53;;;;;;;;;;5014887;28;20286;-68
2023/04/14 04:03:43;;;;;;;18.37;6.93;;;;;;;;;;4996841;28;20175;-68
2023/04/14 04:06:09;;;;;;;13.60;5.40;;;;;;;;;;4996715;28;20203;-67
2023/04/14 04:08:35;;;;;;;12.87;6.93;;;;;;;;;;4996831;28;20222;-67
2023/04/14 04:11:05;;;;;;;12.07;5.60;;;;;;;;;;5014237;28;20286;-69
2023/04/14 04:13:32;;;;;;;15.27;5.80;;;;;;;;;;4996649;28;20259;-68
2023/04/14 04:15:58;;;;;;;12.40;5.27;;;;;;;;;;5014141;28;20291;-67
2023/04/14 04:18:26;;;;;;;14.63;5.10;;;;;;;;;;4996577;28;20188;-69
2023/04/14 04:20:52;;;;;;;9.93;5.63;;;;;;;;;;5013887;28;20211;-67
2023/04/14 04:23:19;;;;;;;13.67;5.67;;;;;;;;;;5014358;28;20160;-67
2023/04/14 04:25:46;;;;;;;7.90;4.67;;;;;;;;;;4996459;28;20187;-68
2023/04/14 04:28:12;;;;;;;9.90;4.70;;;;;;;;;;4996364;28;20278;-68
2023/04/14 04:30:40;;;;;;;11.63;5.50;;;;;;;;;;5013874;28;20180;-68
2023/04/14 04:33:06;;;;;;;10.37;5.07;;;;;;;;;;4996514;28;20195;-67
2023/04/14 04:35:34;;;;;;;8.83;5.27;;;;;;;;;;5013925;28;20179;-68
2023/04/14 04:38:00;;;;;;;13.17;6.07;;;;;;;;;;5014164;28;20171;-67
2023/04/14 04:40:26;;;;;;;10.80;7.40;;;;;;;;;;5014086;28;20569;-67
2023/04/14 04:42:52;;;;;;;15.00;8.23;;;;;;;;;;5013836;28;20204;-68
2023/04/14 04:45:27;;;;;;;11.10;6.47;;;;;;;;;;4996218;28;20268;-68
2023/04/14 04:47:52;;;;;;;16.67;7.07;;;;;;;;;;4996226;28;20261;-68
2023/04/14 04:50:18;;;;;;;23.23;12.17;;;;;;;;;;4996606;28;20226;-68
2023/04/14 04:52:44;;;;;;;13.57;8.30;;;;;;;;;;5013796;28;20214;-67
2023/04/14 04:55:10;;;;;;;22.60;9.93;;;;;;;;;;5014077;28;20180;-67
2023/04/14 04:57:36;;;;;;;37.83;20.00;;;;;;;;;;5013867;28;20176;-68
2023/04/14 05:00:02;;;;;;;33.53;16.53;;;;;;;;;;5013997;28;20602;-68
2023/04/14 05:02:28;;;;;;;35.93;17.93;;;;;;;;;;4995926;28;20214;-67
2023/04/14 05:04:54;;;;;;;18.37;8.10;;;;;;;;;;5013421;28;20657;-68
2023/04/14 05:07:20;;;;;;;22.47;9.93;;;;;;;;;;4995880;28;20172;-68
2023/04/14 05:09:47;;;;;;;25.00;9.40;;;;;;;;;;5013450;28;20646;-68
2023/04/14 05:12:12;;;;;;;26.07;12.97;;;;;;;;;;4995665;28;20207;-68
2023/04/14 05:14:38;;;;;;;22.27;10.20;;;;;;;;;;4996534;28;20533;-68
2023/04/14 05:17:04;;;;;;;20.80;12.43;;;;;;;;;;4995569;28;20188;-69
2023/04/14 05:19:30;;;;;;;18.43;10.17;;;;;;;;;;5013117;28;20202;-69
2023/04/14 05:21:56;;;;;;;28.40;15.13;;;;;;;;;;5013154;28;20273;-69
2023/04/14 05:24:22;;;;;;;22.03;13.60;;;;;;;;;;5013833;28;20536;-69
2023/04/14 05:26:48;;;;;;;20.13;12.83;;;;;;;;;;4995666;28;20296;-69
2023/04/14 05:29:14;;;;;;;23.70;12.20;;;;;;;;;;5013174;28;20176;-69
2023/04/14 05:31:40;;;;;;;21.17;11.47;;;;;;;;;;5013125;28;20199;-69
2023/04/14 05:34:06;;;;;;;19.00;11.43;;;;;;;;;;5013336;28;20187;-69
2023/04/14 05:36:32;;;;;;;18.33;11.30;;;;;;;;;;5013662;28;20176;-68
2023/04/14 05:38:58;;;;;;;16.37;9.50;;;;;;;;;;5013662;28;20650;-67
2023/04/14 05:41:25;;;;;;;16.73;9.77;;;;;;;;;;4996981;28;20674;-66
2023/04/14 05:43:51;;;;;;;16.40;10.50;;;;;;;;;;5013066;28;20172;-66
2023/04/14 05:46:17;;;;;;;16.60;9.37;;;;;;;;;;5012937;28;20181;-67
2023/04/14 05:48:43;;;;;;;15.60;8.13;;;;;;;;;;5013039;28;20555;-66
2023/04/14 05:51:09;;;;;;;15.40;7.77;;;;;;;;;;5013227;28;20211;-67
2023/04/14 05:53:35;;;;;;;11.70;6.97;;;;;;;;;;5013036;28;20188;-67
2023/04/14 05:56:01;;;;;;;9.67;6.60;;;;;;;;;;5013432;28;20552;-66
2023/04/14 05:58:27;;;;;;;10.00;6.43;;;;;;;;;;5013173;28;20246;-67
2023/04/14 06:00:53;;;;;;;11.70;7.07;;;;;;;;;;4995425;28;20302;-67
2023/04/14 06:03:19;;;;;;;8.00;5.93;;;;;;;;;;4995328;28;20180;-67
2023/04/14 06:05:47;;;;;;;15.30;7.27;;;;;;;;;;5013207;28;20190;-67
2023/04/14 06:08:12;;;;;;;12.33;6.63;;;;;;;;;;5015326;28;20172;-67
2023/04/14 06:10:38;;;;;;;15.20;7.53;;;;;;;;;;5016521;28;20242;-67
2023/04/14 06:13:04;;;;;;;12.63;6.63;;;;;;;;;;4998836;28;20254;-67
2023/04/14 06:15:30;;;;;;;11.47;6.60;;;;;;;;;;5016472;28;20649;-67
2023/04/14 06:17:56;;;;;;;10.90;7.00;;;;;;;;;;5016629;28;20259;-67
2023/04/14 06:20:22;;;;;;;12.63;6.43;;;;;;;;;;5016314;28;20294;-67
2023/04/14 06:22:48;;;;;;;10.70;6.77;;;;;;;;;;4997456;28;20215;-67
2023/04/14 06:25:15;;;;;;;11.90;6.70;;;;;;;;;;5015399;28;20242;-67
2023/04/14 06:27:41;;;;;;;9.57;6.30;;;;;;;;;;5015223;28;20176;-67
2023/04/14 06:30:07;;;;;;;10.43;6.80;;;;;;;;;;5002220;28;20318;-67
2023/04/14 06:32:33;;;;;;;11.40;6.97;;;;;;;;;;5015034;28;20199;-67
2023/04/14 06:34:59;;;;;;;11.20;6.73;;;;;;;;;;4997233;28;20195;-67
2023/04/14 06:37:25;;;;;;;10.40;6.30;;;;;;;;;;4997307;28;20180;-67
2023/04/14 06:39:51;;;;;;;11.80;7.17;;;;;;;;;;4997248;28;20258;-66
2023/04/14 06:42:17;;;;;;;13.33;7.20;;;;;;;;;;4997113;28;20199;-67
2023/04/14 06:44:43;;;;;;;15.90;7.70;;;;;;;;;;5014912;28;20176;-67
2023/04/14 06:47:09;;;;;;;16.10;8.67;;;;;;;;;;5015323;28;20685;-67
2023/04/14 06:49:35;;;;;;;14.93;8.07;;;;;;;;;;5014832;28;20290;-67
2023/04/14 06:52:01;;;;;;;20.97;9.30;;;;;;;;;;5014556;28;20206;-67
2023/04/14 06:54:30;;;;;;;16.77;8.83;;;;;;;;;;5014621;28;20259;-67
2023/04/14 06:56:57;;;;;;;15.53;7.93;;;;;;;;;;5014763;28;20228;-68
2023/04/14 06:59:26;;;;;;;12.43;7.83;;;;;;;;;;5014467;28;20558;-68
2023/04/14 07:01:53;;;;;;;15.03;7.67;;;;;;;;;;4996914;28;20731;-68
2023/04/14 07:04:18;;;;;;;21.20;8.33;;;;;;;;;;5014591;28;20176;-67
2023/04/14 07:06:44;;;;;;;18.43;7.93;;;;;;;;;;5014446;28;20218;-68
2023/04/14 07:09:10;;;;;;;19.70;8.13;;;;;;;;;;5014647;28;20176;-67
2023/04/14 07:11:36;;;;;;;12.77;7.37;;;;;;;;;;5014308;28;20192;-68
2023/04/14 07:14:02;;;;;;;12.10;5.93;;;;;;;;;;4997571;28;20190;-67
2023/04/14 07:16:28;;;;;;;12.57;6.43;;;;;;;;;;4996794;28;20634;-67
2023/04/14 07:18:54;;;;;;;12.57;5.70;;;;;;;;;;5013810;28;20175;-68
2023/04/14 07:21:20;;;;;;;14.90;6.50;;;;;;;;;;4978158;28;1063352;-67
2023/04/14 07:23:46;;;;;;;15.73;7.23;;;;;;;;;;4997620;28;20210;-67
2023/04/14 07:26:12;;;;;;;12.90;6.77;;;;;;;;;;5015285;28;20230;-68
2023/04/14 07:28:38;;;;;;;12.57;7.17;;;;;;;;;;5015034;28;20183;-68
2023/04/14 07:31:08;;;;;;;17.50;9.73;;;;;;;;;;4998382;28;20210;-67
2023/04/14 07:33:34;;;;;;;21.80;11.73;;;;;;;;;;5016469;28;20585;-67
2023/04/14 07:36:00;;;;;;;14.23;7.20;;;;;;;;;;5016315;28;20175;-67
2023/04/14 07:38:26;;;;;;;14.27;6.30;;;;;;;;;;5016245;28;20175;-67
2023/04/14 07:40:52;;;;;;;15.37;8.03;;;;;;;;;;5015167;28;20216;-67
2023/04/14 07:43:18;;;;;;;16.43;7.33;;;;;;;;;;5014983;28;20186;-67
2023/04/14 07:45:44;;;;;;;15.13;7.27;;;;;;;;;;5014917;28;20186;-68
2023/04/14 07:48:10;;;;;;;16.33;7.83;;;;;;;;;;4997129;28;20184;-68
2023/04/14 07:50:36;;;;;;;13.40;7.90;;;;;;;;;;4997270;28;20237;-68
2023/04/14 07:53:02;;;;;;;23.57;9.07;;;;;;;;;;5014972;28;20218;-67
2023/04/14 07:55:28;;;;;;;21.23;10.40;;;;;;;;;;5014739;28;20271;-68
2023/04/14 07:57:55;;;;;;;23.50;10.53;;;;;;;;;;5014725;28;20245;-68
2023/04/14 08:00:22;;;;;;;24.57;12.77;;;;;;;;;;4996864;28;20257;-67
2023/04/14 08:02:47;;;;;;;24.67;12.63;;;;;;;;;;5014446;28;20203;-67
2023/04/14 08:05:13;;;;;;;28.60;11.77;;;;;;;;;;5014557;28;20176;-68
2023/04/14 08:07:40;;;;;;;16.43;9.63;;;;;;;;;;4996701;28;20661;-67
2023/04/14 08:10:06;;;;;;;23.70;10.63;;;;;;;;;;4998713;28;20191;-67
2023/04/14 08:12:32;;;;;;;15.70;7.73;;;;;;;;;;5017107;28;20195;-67
2023/04/14 08:14:58;;;;;;;17.87;8.40;;;;;;;;;;4997757;28;20241;-67
2023/04/14 08:17:24;;;;;;;14.77;6.60;;;;;;;;;;5015252;28;20180;-67
2023/04/14 08:19:50;;;;;;;14.67;6.57;;;;;;;;;;5014555;28;20222;-67
2023/04/14 08:22:17;;;;;;;15.47;6.60;;;;;;;;;;5014246;28;20704;-67
2023/04/14 08:24:43;;;;;;;19.03;7.10;;;;;;;;;;5014335;28;20610;-67
2023/04/14 08:27:09;;;;;;;19.40;6.43;;;;;;;;;;4996795;28;20175;-67
2023/04/14 08:29:35;;;;;;;17.20;6.97;;;;;;;;;;4996345;28;20223;-67
2023/04/14 08:32:01;;;;;;;16.30;6.03;;;;;;;;;;4996536;28;20215;-67
2023/04/14 08:34:28;;;;;;;11.67;5.20;;;;;;;;;;4996413;28;20225;-67
2023/04/14 08:36:55;;;;;;;9.07;4.77;;;;;;;;;;4996199;28;20274;-67
2023/04/14 08:39:21;;;;;;;14.67;5.80;;;;;;;;;;5014342;28;20769;-67
2023/04/14 08:41:50;;;;;;;11.10;4.50;;;;;;;;;;5013847;28;20233;-68
2023/04/14 08:44:16;;;;;;;12.33;4.97;;;;;;;;;;4996050;28;20558;-67
2023/04/14 08:46:42;;;;;;;14.57;5.10;;;;;;;;;;4996056;28;20187;-68
2023/04/14 08:49:11;;;;;;;11.77;4.10;;;;;;;;;;4996114;28;20281;-67
2023/04/14 08:51:42;;;;;;;8.73;4.73;;;;;;;;;;5013737;28;20215;-67
2023/04/14 08:54:09;;;;;;;14.07;4.67;;;;;;;;;;5013774;28;20638;-67
2023/04/14 08:56:40;;;;;;;9.37;4.47;;;;;;;;;;5013918;28;20200;-67
2023/04/14 08:59:06;;;;;;;11.93;4.70;;;;;;;;;;5013433;28;20548;-67
2023/04/14 09:01:33;;;;;;;11.87;4.10;;;;;;;;;;5013858;28;20192;-68
2023/04/14 09:04:02;;;;;;;12.37;5.10;;;;;;;;;;4996818;28;20180;-67
2023/04/14 09:06:28;;;;;;;11.33;4.47;;;;;;;;;;5013642;28;20171;-68
2023/04/14 09:08:54;;;;;;;13.77;4.13;;;;;;;;;;5014095;28;20172;-67
2023/04/14 09:11:20;;;;;;;9.13;3.83;;;;;;;;;;4995917;28;20218;-67
2023/04/14 09:13:48;;;;;;;10.23;4.00;;;;;;;;;;5013478;28;20213;-66
2023/04/14 09:16:16;;;;;;;9.87;4.10;;;;;;;;;;4995756;28;20326;-67
2023/04/14 09:18:42;;;;;;;12.20;4.10;;;;;;;;;;5013519;28;20301;-67
2023/04/14 09:21:09;;;;;;;9.90;3.90;;;;;;;;;;5013258;28;20280;-67
2023/04/14 09:23:36;;;;;;;7.73;3.67;;;;;;;;;;4995922;28;20535;-67
2023/04/14 09:26:07;;;;;;;11.10;5.30;;;;;;;;;;5013807;28;20172;-67
2023/04/14 09:28:33;;;;;;;11.23;5.10;;;;;;;;;;5013796;28;20171;-67
2023/04/14 09:31:00;;;;;;;8.50;3.33;;;;;;;;;;5013156;28;20199;-68
2023/04/14 09:33:27;;;;;;;8.20;3.23;;;;;;;;;;5013630;28;20233;-68
2023/04/14 09:35:53;;;;;;;10.23;3.23;;;;;;;;;;5013254;28;20254;-68
2023/04/14 09:38:31;;;;;;;11.27;3.33;;;;;;;;;;5012956;28;20658;-68
2023/04/14 09:40:57;;;;;;;7.80;3.53;;;;;;;;;;5013566;28;20294;-68
2023/04/14 09:43:24;;;;;;;6.77;3.40;;;;;;;;;;5015902;28;20210;-68
2023/04/14 09:45:50;;;;;;;8.90;3.10;;;;;;;;;;5017142;28;20180;-68
2023/04/14 09:48:17;;;;;;;9.97;2.97;;;;;;;;;;4999451;28;20180;-67
2023/04/14 09:51:08;;;;;;;8.93;3.20;;;;;;;;;;5016913;28;20175;-67
2023/04/14 09:53:35;;;;;;;8.33;3.20;;;;;;;;;;5017023;28;20164;-68
2023/04/14 09:56:03;;;;;;;16.53;3.63;;;;;;;;;;5000098;28;20700;-67
2023/04/14 09:58:30;;;;;;;7.53;3.30;;;;;;;;;;5016878;28;20626;-67
2023/04/14 10:00:56;;;;;;;9.47;3.23;;;;;;;;;;5016693;28;20616;-69
2023/04/14 10:03:33;;;;;;;9.53;3.73;;;;;;;;;;5016702;28;20254;-68
2023/04/14 10:06:00;;;;;;;10.90;3.70;;;;;;;;;;5016608;28;20199;-68
2023/04/14 10:08:36;;;;;;;9.70;3.27;;;;;;;;;;5016993;28;20172;-68
2023/04/14 10:11:18;;;;;;;7.17;2.80;;;;;;;;;;5016879;28;20782;-68
2023/04/14 10:13:45;;;;;;;7.27;2.50;;;;;;;;;;5016672;28;20191;-68
2023/04/14 10:16:12;;;;;;;9.13;3.03;;;;;;;;;;5016440;28;20179;-68
2023/04/14 10:18:38;;;;;;;7.23;3.10;;;;;;;;;;5016877;28;20208;-68
2023/04/14 10:21:05;;;;;;;7.80;2.80;;;;;;;;;;5016317;28;20215;-68
2023/04/14 10:23:31;;;;;;;9.63;3.10;;;;;;;;;;5016678;28;20167;-68
2023/04/14 10:25:57;;;;;;;9.30;2.70;;;;;;;;;;4998678;28;20661;-67
2023/04/14 10:28:24;;;;;;;7.23;3.23;;;;;;;;;;5016248;28;20253;-68
2023/04/14 10:30:52;;;;;;;7.10;2.33;;;;;;;;;;5016481;28;20183;-68
2023/04/14 10:33:18;;;;;;;6.10;2.37;;;;;;;;;;5016429;28;20179;-67
2023/04/14 10:35:45;;;;;;;8.87;2.60;;;;;;;;;;5016176;28;20672;-68
2023/04/14 10:38:11;;;;;;;6.03;2.17;;;;;;;;;;5016106;28;20266;-67
2023/04/14 10:40:47;;;;;;;9.47;4.00;;;;;;;;;;5015853;28;20290;-68
2023/04/14 10:43:13;;;;;;;4.60;2.53;;;;;;;;;;5016085;28;20176;-68
2023/04/14 10:45:55;;;;;;;7.77;2.97;;;;;;;;;;4998382;28;20183;-68
2023/04/14 10:48:32;;;;;;;7.10;2.73;;;;;;;;;;5016296;28;20171;-68
2023/04/14 10:50:58;;;;;;;5.23;2.80;;;;;;;;;;5016883;28;20210;-68
2023/04/14 10:53:25;;;;;;;7.40;2.90;;;;;;;;;;5015712;28;20183;-68
2023/04/14 10:55:53;;;;;;;7.40;3.00;;;;;;;;;;4998377;28;20184;-68
2023/04/14 10:58:19;;;;;;;6.47;2.70;;;;;;;;;;5015867;28;20713;-68
2023/04/14 11:00:46;;;;;;;7.23;3.03;;;;;;;;;;5016051;28;20290;-68
2023/04/14 11:03:15;;;;;;;6.10;2.70;;;;;;;;;;5015848;28;20255;-68
2023/04/14 11:05:59;;;;;;;6.50;3.13;;;;;;;;;;4998219;28;20607;-68
2023/04/14 11:08:26;;;;;;;6.07;2.93;;;;;;;;;;5015715;28;20255;-68
2023/04/14 11:11:00;;;;;;;5.20;2.30;;;;;;;;;;4997843;28;20215;-68
2023/04/14 11:13:26;;;;;;;5.23;2.50;;;;;;;;;;5015318;28;20168;-68
2023/04/14 11:16:01;;;;;;;8.20;2.60;;;;;;;;;;5015753;28;20180;-68
2023/04/14 11:18:32;;;;;;;5.60;1.90;;;;;;;;;;4997744;28;20194;-69
2023/04/14 11:21:03;;;;;;;5.90;2.17;;;;;;;;;;5015010;28;20294;-68
2023/04/14 11:23:29;;;;;;;6.40;2.23;;;;;;;;;;5015619;28;20156;-68
2023/04/14 11:25:57;;;;;;;8.03;2.77;;;;;;;;;;5015373;28;20265;-68
2023/04/14 11:28:35;;;;;;;5.93;2.00;;;;;;;;;;5015344;28;20183;-68
2023/04/14 11:31:05;;;;;;;6.13;2.33;;;;;;;;;;5015309;28;20203;-70
2023/04/14 11:33:36;;;;;;;4.23;1.80;;;;;;;;;;5015524;28;20180;-66
2023/04/14 11:36:02;;;;;;;6.70;3.03;;;;;;;;;;5015066;28;20176;-68
2023/04/14 11:38:28;;;;;;;5.90;2.43;;;;;;;;;;5015458;28;20184;-68
2023/04/14 11:40:55;;;;;;;6.40;2.40;;;;;;;;;;5015071;28;20281;-68
2023/04/14 11:43:21;;;;;;;6.60;3.03;;;;;;;;;;5015197;28;20564;-68
2023/04/14 11:45:47;;;;;;;4.73;2.77;;;;;;;;;;5014845;28;20259;-69
2023/04/14 11:48:17;;;;;;;6.67;2.90;;;;;;;;;;4997261;28;20266;-69
2023/04/14 11:50:44;;;;;;;6.57;2.47;;;;;;;;;;4997191;28;20646;-68
2023/04/14 11:53:17;;;;;;;8.23;2.83;;;;;;;;;;5014951;28;20183;-68
2023/04/14 11:55:44;;;;;;;5.77;2.70;;;;;;;;;;5014863;28;20656;-68
2023/04/14 11:58:11;;;;;;;5.33;2.37;;;;;;;;;;5014679;28;20314;-68
2023/04/14 12:00:37;;;;;;;7.13;2.37;;;;;;;;;;5014758;28;20619;-69
2023/04/14 12:03:03;;;;;;;4.37;1.90;;;;;;;;;;5014668;28;20185;-69
2023/04/14 12:05:31;;;;;;;6.93;2.93;;;;;;;;;;5013956;28;20222;-68
2023/04/14 12:08:02;;;;;;;3.83;1.87;;;;;;;;;;4996845;28;20537;-68
2023/04/14 12:10:28;;;;;;;5.33;2.30;;;;;;;;;;5014643;28;20183;-68
2023/04/14 12:13:04;;;;;;;5.73;2.70;;;;;;;;;;4996759;28;20214;-68
2023/04/14 12:15:35;;;;;;;5.07;2.23;;;;;;;;;;4997326;28;20322;-68
2023/04/14 12:18:02;;;;;;;4.93;2.13;;;;;;;;;;5014637;28;20507;-68
2023/04/14 12:20:29;;;;;;;4.97;2.17;;;;;;;;;;5014250;28;20661;-68
2023/04/14 12:23:04;;;;;;;3.13;2.50;;;;;;;;;;5015644;28;20238;-67
2023/04/14 12:25:33;;;;;;;7.80;2.30;;;;;;;;;;5015775;28;20186;-67
2023/04/14 12:28:07;;;;;;;6.07;2.40;;;;;;;;;;5015356;28;20180;-68
2023/04/14 12:30:33;;;;;;;5.47;2.27;;;;;;;;;;5014767;28;20160;-68
2023/04/14 12:33:05;;;;;;;4.07;2.30;;;;;;;;;;5014172;28;20666;-68
2023/04/14 12:35:34;;;;;;;6.87;3.70;;;;;;;;;;5014606;28;20237;-68
2023/04/14 12:38:00;;;;;;;4.37;1.90;;;;;;;;;;5015313;28;20245;-69
2023/04/14 12:40:44;;;;;;;2.23;1.80;;;;;;;;;;5015430;28;20594;-67
2023/04/14 12:43:10;;;;;;;4.07;2.10;;;;;;;;;;5013910;28;20153;-68
2023/04/14 12:45:43;;;;;;;7.23;2.40;;;;;;;;;;5014111;28;20211;-69
2023/04/14 12:48:09;;;;;;;2.77;2.10;;;;;;;;;;4997872;28;20660;-66
2023/04/14 12:50:35;;;;;;;6.50;2.07;;;;;;;;;;5014377;28;20184;-67
2023/04/14 12:53:02;;;;;;;5.83;2.07;;;;;;;;;;4996527;28;20183;-67
2023/04/14 12:55:29;;;;;;;3.70;1.97;;;;;;;;;;5014142;28;20536;-67
2023/04/14 12:57:56;;;;;;;3.73;2.27;;;;;;;;;;5014072;28;20206;-67
2023/04/14 13:00:22;;;;;;;5.53;2.30;;;;;;;;;;5013888;28;20209;-69
2023/04/14 13:02:49;;;;;;;6.13;2.00;;;;;;;;;;4996181;28;20246;-68
2023/04/14 13:05:16;;;;;;;6.80;2.10;;;;;;;;;;5013548;28;20262;-68
2023/04/14 13:07:42;;;;;;;3.43;2.10;;;;;;;;;;5014347;28;20254;-67
2023/04/14 13:10:08;;;;;;;3.60;2.40;;;;;;;;;;5014478;28;20688;-67
2023/04/14 13:12:34;;;;;;;7.30;2.30;;;;;;;;;;5013279;28;20216;-68
2023/04/14 13:15:00;;;;;;;4.00;2.00;;;;;;;;;;4995667;28;20282;-67
2023/04/14 13:17:26;;;;;;;3.77;2.27;;;;;;;;;;5012410;28;20183;-67
2023/04/14 13:19:52;;;;;;;4.07;2.23;;;;;;;;;;5013211;28;20207;-68
2023/04/14 13:22:18;;;;;;;7.53;2.60;;;;;;;;;;4995680;28;20215;-67
2023/04/14 13:24:44;;;;;;;6.47;2.50;;;;;;;;;;5013310;28;20638;-68
2023/04/14 13:27:11;;;;;;;5.23;2.33;;;;;;;;;;5013400;28;20172;-68
2023/04/14 13:29:37;;;;;;;4.27;2.10;;;;;;;;;;5013316;28;20230;-67
2023/04/14 13:32:03;;;;;;;5.37;2.00;;;;;;;;;;5013207;28;20207;-67
2023/04/14 13:34:29;;;;;;;7.80;2.67;;;;;;;;;;4998961;28;20187;-67
2023/04/14 13:36:55;;;;;;;5.20;2.43;;;;;;;;;;5016831;28;20182;-67
2023/04/14 13:39:21;;;;;;;3.77;2.23;;;;;;;;;;5014315;28;20188;-67
2023/04/14 13:41:48;;;;;;;8.70;2.07;;;;;;;;;;5014064;28;20291;-67
2023/04/14 13:44:14;;;;;;;5.27;2.27;;;;;;;;;;5013403;28;20172;-67
2023/04/14 13:46:40;;;;;;;7.43;2.57;;;;;;;;;;4995554;28;20712;-68
2023/04/14 13:49:06;;;;;;;6.40;2.10;;;;;;;;;;5013049;28;20184;-68
2023/04/14 13:51:32;;;;;;;8.13;2.20;;;;;;;;;;5013078;28;20310;-68
2023/04/14 13:53:58;;;;;;;4.13;2.60;;;;;;;;;;4995285;28;20282;-69
2023/04/14 13:56:26;;;;;;;7.27;2.80;;;;;;;;;;5012924;28;20180;-67
2023/04/14 13:58:52;;;;;;;7.10;2.80;;;;;;;;;;5012994;28;20535;-68
2023/04/14 14:01:18;;;;;;;5.90;2.50;;;;;;;;;;5012891;28;20579;-68
2023/04/14 14:03:44;;;;;;;4.47;2.57;;;;;;;;;;4995189;28;20275;-67
2023/04/14 14:06:10;;;;;;;3.33;2.20;;;;;;;;;;5013012;28;20285;-67
2023/04/14 14:08:36;;;;;;;5.50;2.40;;;;;;;;;;5013415;28;20176;-67
2023/04/14 14:11:06;;;;;;;5.90;2.27;;;;;;;;;;4995118;28;20213;-67
2023/04/14 14:13:32;;;;;;;3.77;2.37;;;;;;;;;;4995365;28;20188;-67
2023/04/14 14:15:58;;;;;;;5.03;2.30;;;;;;;;;;5013440;28;20180;-68
2023/04/14 14:18:24;;;;;;;6.33;2.70;;;;;;;;;;5013467;28;20211;-69
2023/04/14 14:20:50;;;;;;;2.73;1.77;;;;;;;;;;5012513;28;20250;-67
2023/04/14 14:23:16;;;;;;;4.33;2.70;;;;;;;;;;4995836;28;20162;-68
2023/04/14 14:25:42;;;;;;;;;;;;;;;;;;4995711;28;20443;-67
2023/04/14 14:28:08;;;;;;;;;;;;;;;;;;5013896;28;19906;-67
2023/04/14 14:30:34;;;;;;;5.15;2.55;;;;;;;;;;5016475;28;19958;-69
2023/04/14 14:33:00;;;;;;;3.27;2.03;;;;;;;;;;4999198;28;20195;-67
2023/04/14 14:35:26;;;;;;;4.27;2.00;;;;;;;;;;5016452;28;20257;-67
2023/04/14 14:37:52;;;;;;;3.33;1.80;;;;;;;;;;5016010;28;20653;-68